createdAt,value
2019-05-14T00:01:17.663Z,8.60
2019-05-14T00:03:47.651Z,8.40
2019-05-14T00:06:17.718Z,8.40
2019-05-14T00:08:47.706Z,8.30
2019-05-14T00:11:17.767Z,8.20
2019-05-14T00:13:47.775Z,8.20
2019-05-14T00:16:18.018Z,8.20
2019-05-14T00:18:48.027Z,8.30
2019-05-14T00:21:18.047Z,8.30
2019-05-14T00:23:48.155Z,8.20
2019-05-14T00:26:18.171Z,8.20
2019-05-14T00:28:48.166Z,8.10
2019-05-14T00:31:18.194Z,8.10
2019-05-14T00:33:48.438Z,8.10
2019-05-14T00:36:18.546Z,8.20
2019-05-14T00:38:48.599Z,8.20
2019-05-14T00:41:18.602Z,8.20
2019-05-14T00:43:51.185Z,8.20
2019-05-14T00:46:21.224Z,8.20
2019-05-14T00:48:51.670Z,8.10
2019-05-14T00:51:21.795Z,8.00
2019-05-14T00:53:51.818Z,7.90
2019-05-14T00:56:21.894Z,7.90
2019-05-14T00:58:52.332Z,7.80
2019-05-14T01:01:22.498Z,7.70
2019-05-14T01:03:52.482Z,7.70
2019-05-14T01:06:22.486Z,7.60
2019-05-14T01:08:52.547Z,7.60
2019-05-14T01:11:22.655Z,7.50
2019-05-14T01:13:52.708Z,7.50
2019-05-14T01:16:22.724Z,7.60
2019-05-14T01:18:52.734Z,7.60
2019-05-14T01:21:22.773Z,7.50
2019-05-14T01:23:52.775Z,7.50
2019-05-14T01:26:22.895Z,7.50
2019-05-14T01:28:52.907Z,7.50
2019-05-14T01:31:23.217Z,7.50
2019-05-14T01:33:53.262Z,7.50
2019-05-14T01:36:23.319Z,7.60
2019-05-14T01:38:53.355Z,7.60
2019-05-14T01:41:23.405Z,7.60
2019-05-14T01:43:53.463Z,7.50
2019-05-14T01:46:23.483Z,7.40
2019-05-14T01:48:53.518Z,7.30
2019-05-14T01:51:23.526Z,7.30
2019-05-14T01:53:53.532Z,7.30
2019-05-14T01:56:23.569Z,7.30
2019-05-14T01:58:53.607Z,7.30
2019-05-14T02:01:23.619Z,7.20
2019-05-14T02:03:53.737Z,7.30
2019-05-14T02:06:23.776Z,7.30
2019-05-14T02:08:53.867Z,7.30
2019-05-14T02:11:23.871Z,7.30
2019-05-14T02:13:53.974Z,7.20
2019-05-14T02:16:24.151Z,7.20
2019-05-14T02:18:54.180Z,7.20
2019-05-14T02:21:24.196Z,7.20
2019-05-14T02:23:54.214Z,7.20
2019-05-14T02:26:24.276Z,7.10
2019-05-14T02:28:54.303Z,7.10
2019-05-14T02:31:24.368Z,7.00
2019-05-14T02:33:54.407Z,6.90
2019-05-14T02:36:24.628Z,7.00
2019-05-14T02:38:54.729Z,7.00
2019-05-14T02:41:24.763Z,7.00
2019-05-14T02:43:54.867Z,7.00
2019-05-14T02:46:24.962Z,6.90
2019-05-14T02:48:55.109Z,6.90
2019-05-14T02:51:25.185Z,6.90
2019-05-14T02:53:55.194Z,6.90
2019-05-14T02:56:25.180Z,6.80
2019-05-14T02:58:56.170Z,6.80
2019-05-14T03:01:26.178Z,6.70
2019-05-14T03:03:59.647Z,6.70
2019-05-14T03:06:29.109Z,6.80
2019-05-14T03:09:00.142Z,6.70
2019-05-14T03:11:30.389Z,6.70
2019-05-14T03:14:00.460Z,6.70
2019-05-14T03:16:35.388Z,6.60
2019-05-14T03:19:02.293Z,6.60
2019-05-14T03:21:32.371Z,6.50
2019-05-14T03:24:02.460Z,6.50
2019-05-14T03:26:32.476Z,6.40
2019-05-14T03:29:02.500Z,6.50
2019-05-14T03:31:33.824Z,6.40
2019-05-14T03:34:04.270Z,6.40
2019-05-14T03:36:35.639Z,6.50
2019-05-14T03:39:10.565Z,6.50
2019-05-14T03:41:39.937Z,6.40
2019-05-14T03:44:10.216Z,6.40
2019-05-14T03:46:48.930Z,6.40
2019-05-14T03:49:12.109Z,6.50
2019-05-14T03:51:42.105Z,6.40
2019-05-14T03:54:13.069Z,6.40
2019-05-14T03:56:43.319Z,6.30
2019-05-14T03:59:13.467Z,6.40
2019-05-14T04:01:43.564Z,6.40
2019-05-14T04:04:13.741Z,6.40
2019-05-14T04:06:44.036Z,6.40
2019-05-14T04:09:15.867Z,6.40
2019-05-14T04:11:50.214Z,6.30
2019-05-14T04:14:22.776Z,6.30
2019-05-14T04:17:05.337Z,6.40
2019-05-14T04:19:29.915Z,6.30
2019-05-14T04:22:02.460Z,6.40
2019-05-14T04:24:36.885Z,6.40
2019-05-14T04:27:12.583Z,6.50
2019-05-14T04:29:41.243Z,6.40
2019-05-14T04:32:11.495Z,6.40
2019-05-14T04:34:42.096Z,6.50
2019-05-14T04:37:13.582Z,6.50
2019-05-14T04:39:43.627Z,6.50
2019-05-14T04:42:13.736Z,6.50
2019-05-14T04:44:43.830Z,6.50
2019-05-14T04:47:27.394Z,6.60
2019-05-14T04:49:45.757Z,6.60
2019-05-14T04:52:15.766Z,6.60
2019-05-14T04:54:45.960Z,6.60
2019-05-14T04:57:19.572Z,6.60
2019-05-14T04:59:49.365Z,6.60
2019-05-14T05:02:20.167Z,6.70
2019-05-14T05:04:51.015Z,6.70
2019-05-14T05:07:21.275Z,6.70
2019-05-14T05:09:52.819Z,6.80
2019-05-14T05:12:22.858Z,6.80
2019-05-14T05:14:52.965Z,6.80
2019-05-14T05:17:37.729Z,6.80
2019-05-14T05:19:54.787Z,6.80
2019-05-14T05:22:24.939Z,6.80
2019-05-14T05:24:55.066Z,6.90
2019-05-14T05:27:25.179Z,6.90
2019-05-14T05:29:55.263Z,7.00
2019-05-14T05:32:25.402Z,7.00
2019-05-14T05:34:55.493Z,7.00
2019-05-14T05:37:25.557Z,7.10
2019-05-14T05:39:55.643Z,7.10
2019-05-14T05:42:25.687Z,7.20
2019-05-14T05:44:55.736Z,7.20
2019-05-14T05:47:25.764Z,7.30
2019-05-14T05:49:58.062Z,7.30
2019-05-14T05:52:28.396Z,7.30
2019-05-14T05:54:58.582Z,7.50
2019-05-14T05:57:28.720Z,7.50
2019-05-14T05:59:59.087Z,7.60
2019-05-14T06:02:29.322Z,7.70
2019-05-14T06:04:59.502Z,7.80
2019-05-14T06:07:29.580Z,8.00
2019-05-14T06:09:59.679Z,9.30
2019-05-14T06:12:29.778Z,11.00
2019-05-14T06:14:59.931Z,11.80
2019-05-14T06:17:30.061Z,11.60
2019-05-14T06:20:00.214Z,10.90
2019-05-14T06:22:30.255Z,10.20
2019-05-14T06:25:00.317Z,9.80
2019-05-14T06:27:30.555Z,9.60
2019-05-14T06:30:00.659Z,9.50
2019-05-14T06:32:30.745Z,9.40
2019-05-14T06:35:00.983Z,9.40
2019-05-14T06:37:31.183Z,9.40
2019-05-14T06:40:01.211Z,9.40
2019-05-14T06:42:31.422Z,9.50
2019-05-14T06:45:01.441Z,9.70
2019-05-14T06:47:31.610Z,10.00
2019-05-14T06:50:01.637Z,10.70
2019-05-14T06:52:31.751Z,12.80
2019-05-14T06:55:01.935Z,15.50
2019-05-14T06:57:32.054Z,17.10
2019-05-14T07:00:02.171Z,17.70
2019-05-14T07:02:33.372Z,19.00
2019-05-14T07:05:03.665Z,19.80
2019-05-14T07:07:33.684Z,20.90
2019-05-14T07:10:04.000Z,21.40
2019-05-14T07:12:34.015Z,21.70
2019-05-14T07:15:04.459Z,22.30
2019-05-14T07:17:34.528Z,22.60
2019-05-14T07:20:05.916Z,21.90
2019-05-14T07:22:35.905Z,21.60
2019-05-14T07:25:09.775Z,21.40
2019-05-14T07:27:39.514Z,21.90
2019-05-14T07:30:11.014Z,21.70
2019-05-14T07:32:41.005Z,22.40
2019-05-14T07:35:23.227Z,23.10
2019-05-14T07:37:54.299Z,22.00
2019-05-14T07:40:24.309Z,22.60
2019-05-14T07:42:54.333Z,22.80
2019-05-14T07:45:24.392Z,23.60
2019-05-14T07:47:54.396Z,23.90
2019-05-14T07:50:24.434Z,23.90
2019-05-14T07:52:54.443Z,23.40
2019-05-14T07:55:24.536Z,23.70
2019-05-14T07:57:55.557Z,24.10
2019-05-14T08:00:28.368Z,24.10
2019-05-14T08:02:58.152Z,24.00
2019-05-14T08:05:28.738Z,23.20
2019-05-14T08:07:59.022Z,23.50
2019-05-14T08:10:32.356Z,22.80
2019-05-14T08:13:02.477Z,23.70
2019-05-14T08:15:32.490Z,23.70
2019-05-14T08:18:03.300Z,24.00
2019-05-14T08:20:33.401Z,24.20
2019-05-14T08:23:03.400Z,24.00
2019-05-14T08:25:33.435Z,23.00
2019-05-14T08:28:03.448Z,22.10
2019-05-14T08:30:33.562Z,21.70
2019-05-14T08:33:03.643Z,22.00
2019-05-14T08:35:35.119Z,22.50
2019-05-14T08:38:08.584Z,22.20
2019-05-14T08:40:38.264Z,22.80
2019-05-14T08:43:09.555Z,24.70
2019-05-14T08:45:39.666Z,24.30
2019-05-14T08:48:09.772Z,24.30
2019-05-14T08:50:39.841Z,24.20
2019-05-14T08:53:09.930Z,25.40
2019-05-14T08:55:40.047Z,23.50
2019-05-14T08:58:13.769Z,22.80
2019-05-14T09:00:42.005Z,22.80
2019-05-14T09:03:12.028Z,22.90
2019-05-14T09:05:42.170Z,22.60
2019-05-14T09:08:12.375Z,21.90
2019-05-14T09:10:42.437Z,22.60
2019-05-14T09:13:12.499Z,22.00
2019-05-14T09:15:42.681Z,21.00
2019-05-14T09:18:12.753Z,19.60
2019-05-14T09:20:43.913Z,18.70
2019-05-14T09:23:13.945Z,17.70
2019-05-14T09:25:48.250Z,18.60
2019-05-14T09:28:18.618Z,20.10
2019-05-14T09:30:48.775Z,20.50
2019-05-14T09:33:20.303Z,20.70
2019-05-14T09:36:09.174Z,20.70
2019-05-14T09:38:22.509Z,20.90
2019-05-14T09:41:06.967Z,19.80
2019-05-14T09:43:24.515Z,18.60
2019-05-14T09:45:54.707Z,18.70
2019-05-14T09:48:24.734Z,19.30
2019-05-14T09:50:54.903Z,20.20
2019-05-14T09:53:24.958Z,20.20
2019-05-14T09:55:55.076Z,19.50
2019-05-14T09:58:25.104Z,20.40
2019-05-14T10:00:55.205Z,20.50
2019-05-14T10:03:25.256Z,20.10
2019-05-14T10:05:55.372Z,20.40
2019-05-14T10:08:25.444Z,20.60
2019-05-14T10:10:55.503Z,20.70
2019-05-14T10:13:28.050Z,20.00
2019-05-14T10:15:58.915Z,19.40
2019-05-14T10:18:29.144Z,19.20
2019-05-14T10:20:59.247Z,19.50
2019-05-14T10:23:29.341Z,19.40
2019-05-14T10:25:59.369Z,19.80
2019-05-14T10:28:29.399Z,19.60
2019-05-14T10:31:01.820Z,19.30
2019-05-14T10:33:31.400Z,18.70
2019-05-14T10:36:01.613Z,18.10
2019-05-14T10:38:31.868Z,18.10
2019-05-14T10:41:02.071Z,18.40
2019-05-14T10:43:33.265Z,18.70
2019-05-14T10:46:03.434Z,18.60
2019-05-14T10:48:33.607Z,18.50
2019-05-14T10:51:03.882Z,17.90
2019-05-14T10:53:34.113Z,17.30
2019-05-14T10:56:04.184Z,17.10
2019-05-14T10:58:34.431Z,17.30
2019-05-14T11:01:04.523Z,17.30
2019-05-14T11:03:34.723Z,17.00
2019-05-14T11:06:04.796Z,17.00
2019-05-14T11:08:34.871Z,17.20
2019-05-14T11:11:05.019Z,17.10
2019-05-14T11:13:35.175Z,17.30
2019-05-14T11:16:05.483Z,17.00
2019-05-14T11:18:35.643Z,16.90
2019-05-14T11:21:21.527Z,16.70
2019-05-14T11:23:38.658Z,16.70
2019-05-14T11:26:09.307Z,17.10
2019-05-14T11:28:39.684Z,17.40
2019-05-14T11:31:11.086Z,17.40
2019-05-14T11:33:41.215Z,17.70
2019-05-14T11:36:11.340Z,17.60
2019-05-14T11:38:41.413Z,17.20
2019-05-14T11:41:11.491Z,16.70
2019-05-14T11:43:41.556Z,16.90
2019-05-14T11:46:11.584Z,17.00
2019-05-14T11:48:41.724Z,16.80
2019-05-14T11:51:11.827Z,16.90
2019-05-14T11:53:41.914Z,17.30
2019-05-14T11:56:12.016Z,17.70
2019-05-14T11:58:42.050Z,17.80
2019-05-14T12:01:12.178Z,18.20
2019-05-14T12:03:42.212Z,18.40
2019-05-14T12:06:12.377Z,18.50
2019-05-14T12:08:43.967Z,18.30
2019-05-14T12:11:14.129Z,17.70
2019-05-14T12:13:44.303Z,17.30
2019-05-14T12:16:14.367Z,16.80
2019-05-14T12:18:44.462Z,16.80
2019-05-14T12:21:14.603Z,17.10
2019-05-14T12:23:44.762Z,17.50
2019-05-14T12:26:14.814Z,17.30
2019-05-14T12:28:45.042Z,17.50
2019-05-14T12:31:15.174Z,17.50
2019-05-14T12:33:45.266Z,17.70
2019-05-14T12:36:15.409Z,17.70
2019-05-14T12:38:45.613Z,17.80
2019-05-14T12:41:19.070Z,17.90
2019-05-14T12:43:47.702Z,17.90
2019-05-14T12:46:20.145Z,18.20
2019-05-14T12:48:49.764Z,18.00
2019-05-14T12:51:21.089Z,17.40
2019-05-14T12:53:51.231Z,17.50
2019-05-14T12:56:21.341Z,17.60
2019-05-14T12:58:51.469Z,17.20
2019-05-14T13:01:21.673Z,17.10
2019-05-14T13:03:51.720Z,16.80
2019-05-14T13:06:21.916Z,17.20
2019-05-14T13:08:52.040Z,17.60
2019-05-14T13:11:23.147Z,17.60
2019-05-14T13:13:53.392Z,17.60
2019-05-14T13:16:23.524Z,18.10
2019-05-14T13:18:53.979Z,18.40
2019-05-14T13:21:24.146Z,18.60
2019-05-14T13:23:54.306Z,18.70
2019-05-14T13:26:24.449Z,18.70
2019-05-14T13:28:54.575Z,18.60
2019-05-14T13:31:24.860Z,18.60
2019-05-14T13:33:54.973Z,18.50
2019-05-14T13:36:25.157Z,18.80
2019-05-14T13:38:55.340Z,19.30
2019-05-14T13:41:25.520Z,19.30
2019-05-14T13:43:58.457Z,18.50
2019-05-14T13:46:28.700Z,17.80
2019-05-14T13:48:59.420Z,17.20
2019-05-14T13:51:33.448Z,17.50
2019-05-14T13:54:01.564Z,17.70
2019-05-14T13:56:31.776Z,17.80
2019-05-14T13:59:01.897Z,17.40
2019-05-14T14:01:33.910Z,16.90
2019-05-14T14:04:11.228Z,16.90
2019-05-14T14:06:39.200Z,17.40
2019-05-14T14:09:12.489Z,18.10
2019-05-14T14:11:39.752Z,18.10
2019-05-14T14:14:10.011Z,17.40
2019-05-14T14:16:40.223Z,16.90
2019-05-14T14:19:10.487Z,16.90
2019-05-14T14:21:40.641Z,17.20
2019-05-14T14:24:10.772Z,17.40
2019-05-14T14:26:41.085Z,17.40
2019-05-14T14:29:11.275Z,17.60
2019-05-14T14:31:41.817Z,17.90
2019-05-14T14:34:12.089Z,18.10
2019-05-14T14:36:42.274Z,18.50
2019-05-14T14:39:12.739Z,17.90
2019-05-14T14:41:43.007Z,17.30
2019-05-14T14:44:13.179Z,17.20
2019-05-14T14:46:43.297Z,17.00
2019-05-14T14:49:13.524Z,16.70
2019-05-14T14:51:45.214Z,16.80
2019-05-14T14:54:16.516Z,17.30
2019-05-14T14:56:48.708Z,17.40
2019-05-14T14:59:19.159Z,17.20
2019-05-14T15:01:50.733Z,17.00
2019-05-14T15:04:20.963Z,17.20
2019-05-14T15:06:52.163Z,17.30
2019-05-14T15:09:22.356Z,17.30
2019-05-14T15:11:52.688Z,17.00
2019-05-14T15:14:22.909Z,16.50
2019-05-14T15:16:53.078Z,16.20
2019-05-14T15:19:23.245Z,16.00
2019-05-14T15:21:53.383Z,16.10
2019-05-14T15:24:23.579Z,16.40
2019-05-14T15:26:53.759Z,16.90
2019-05-14T15:29:23.967Z,17.70
2019-05-14T15:31:54.087Z,17.80
2019-05-14T15:34:24.305Z,17.40
2019-05-14T15:36:54.674Z,17.20
2019-05-14T15:39:25.005Z,16.90
2019-05-14T15:41:55.149Z,16.50
2019-05-14T15:44:25.251Z,16.30
2019-05-14T15:46:55.406Z,16.50
2019-05-14T15:49:28.202Z,17.10
2019-05-14T15:51:57.455Z,17.30
2019-05-14T15:54:39.794Z,17.50
2019-05-14T15:56:59.533Z,17.70
2019-05-14T15:59:29.664Z,18.20
2019-05-14T16:01:59.842Z,18.20
2019-05-14T16:04:30.119Z,17.60
2019-05-14T16:07:00.285Z,17.10
2019-05-14T16:09:30.799Z,16.80
2019-05-14T16:12:02.349Z,16.90
2019-05-14T16:14:32.557Z,17.00
2019-05-14T16:17:02.830Z,17.30
2019-05-14T16:19:33.093Z,17.30
2019-05-14T16:22:03.311Z,17.50
2019-05-14T16:24:33.511Z,17.50
2019-05-14T16:27:03.727Z,17.40
2019-05-14T16:29:41.764Z,17.50
2019-05-14T16:32:08.255Z,17.40
2019-05-14T16:34:41.009Z,17.40
2019-05-14T16:37:11.007Z,17.50
2019-05-14T16:39:41.574Z,17.50
2019-05-14T16:42:11.875Z,17.20
2019-05-14T16:44:42.745Z,16.50
2019-05-14T16:47:13.899Z,16.00
2019-05-14T16:49:44.152Z,15.70
2019-05-14T16:52:17.919Z,15.80
2019-05-14T16:54:48.818Z,16.00
2019-05-14T16:57:19.237Z,16.10
2019-05-14T16:59:49.774Z,16.40
2019-05-14T17:02:20.047Z,16.70
2019-05-14T17:04:51.606Z,17.10
2019-05-14T17:07:21.716Z,17.20
2019-05-14T17:09:51.903Z,17.20
2019-05-14T17:12:22.900Z,17.20
2019-05-14T17:14:53.438Z,17.20
2019-05-14T17:17:23.483Z,17.10
2019-05-14T17:19:53.694Z,17.00
2019-05-14T17:22:29.242Z,16.90
2019-05-14T17:24:58.503Z,16.70
2019-05-14T17:27:28.624Z,16.70
2019-05-14T17:29:59.117Z,16.70
2019-05-14T17:32:30.312Z,16.80
2019-05-14T17:35:01.490Z,16.30
2019-05-14T17:37:32.884Z,15.90
2019-05-14T17:40:02.970Z,15.50
2019-05-14T17:42:33.137Z,15.30
2019-05-14T17:45:03.432Z,15.10
2019-05-14T17:47:34.264Z,15.10
2019-05-14T17:50:09.925Z,15.00
2019-05-14T17:52:44.091Z,14.90
2019-05-14T17:55:12.569Z,14.80
2019-05-14T17:57:47.834Z,14.90
2019-05-14T18:00:15.271Z,14.90
2019-05-14T18:02:45.449Z,14.90
2019-05-14T18:05:18.617Z,14.90
2019-05-14T18:07:48.259Z,14.90
2019-05-14T18:10:19.533Z,14.90
2019-05-14T18:12:49.875Z,14.80
2019-05-14T18:15:20.136Z,14.70
2019-05-14T18:17:50.251Z,14.60
2019-05-14T18:20:20.470Z,14.50
2019-05-14T18:22:50.712Z,14.30
2019-05-14T18:25:20.915Z,14.20
2019-05-14T18:27:51.013Z,14.10
2019-05-14T18:30:21.265Z,14.00
2019-05-14T18:32:51.627Z,14.00
2019-05-14T18:35:21.913Z,13.80
2019-05-14T18:37:52.140Z,13.80
2019-05-14T18:40:22.158Z,13.60
2019-05-14T18:42:52.272Z,13.50
2019-05-14T18:45:22.507Z,13.50
2019-05-14T18:47:52.554Z,13.30
2019-05-14T18:50:22.659Z,13.20
2019-05-14T18:52:52.968Z,13.20
2019-05-14T18:55:23.119Z,13.10
2019-05-14T18:57:53.156Z,13.00
2019-05-14T19:00:23.312Z,12.90
2019-05-14T19:02:53.443Z,12.80
2019-05-14T19:05:23.551Z,12.80
2019-05-14T19:07:53.792Z,12.70
2019-05-14T19:10:23.808Z,12.60
2019-05-14T19:12:53.932Z,12.60
2019-05-14T19:15:23.956Z,12.50
2019-05-14T19:17:57.391Z,12.40
2019-05-14T19:20:27.934Z,12.30
2019-05-14T19:22:59.625Z,12.20
2019-05-14T19:25:29.600Z,12.20
2019-05-14T19:27:59.825Z,12.10
2019-05-14T19:30:30.647Z,12.10
2019-05-14T19:33:00.715Z,12.00
2019-05-14T19:35:30.902Z,12.00
2019-05-14T19:38:01.043Z,11.90
2019-05-14T19:40:31.203Z,11.80
2019-05-14T19:43:01.334Z,11.80
2019-05-14T19:45:31.499Z,11.70
2019-05-14T19:48:01.577Z,11.70
2019-05-14T19:50:31.759Z,11.60
2019-05-14T19:53:01.865Z,11.50
2019-05-14T19:55:31.976Z,11.50
2019-05-14T19:58:02.062Z,11.40
2019-05-14T20:00:32.166Z,11.40
2019-05-14T20:03:02.298Z,11.30
2019-05-14T20:05:32.347Z,11.30
2019-05-14T20:08:02.402Z,11.20
2019-05-14T20:10:32.442Z,11.20
2019-05-14T20:13:02.612Z,11.20
2019-05-14T20:15:32.716Z,11.20
2019-05-14T20:18:02.732Z,11.10
2019-05-14T20:20:32.836Z,11.10
2019-05-14T20:23:02.890Z,11.00
2019-05-14T20:25:32.953Z,10.90
2019-05-14T20:28:03.141Z,10.90
2019-05-14T20:30:33.488Z,10.80
2019-05-14T20:33:03.533Z,10.80
2019-05-14T20:35:35.045Z,10.80
2019-05-14T20:38:05.326Z,10.70
2019-05-14T20:40:35.351Z,10.60
2019-05-14T20:43:05.354Z,10.60
2019-05-14T20:45:35.411Z,10.50
2019-05-14T20:48:05.679Z,10.50
2019-05-14T20:50:38.272Z,10.50
2019-05-14T20:53:08.483Z,10.40
2019-05-14T20:55:38.982Z,10.30
2019-05-14T20:58:09.279Z,10.30
2019-05-14T21:00:41.343Z,10.30
2019-05-14T21:03:11.091Z,10.20
2019-05-14T21:05:42.438Z,10.10
2019-05-14T21:08:13.640Z,10.10
2019-05-14T21:10:45.047Z,10.00
2019-05-14T21:13:15.042Z,10.00
2019-05-14T21:15:45.180Z,9.90
2019-05-14T21:18:15.187Z,9.90
2019-05-14T21:20:45.207Z,9.90
2019-05-14T21:23:15.256Z,10.00
2019-05-14T21:25:45.331Z,9.90
2019-05-14T21:28:15.379Z,9.80
2019-05-14T21:30:45.403Z,9.70
2019-05-14T21:33:15.487Z,9.70
2019-05-14T21:35:45.543Z,9.70
2019-05-14T21:38:15.595Z,9.80
2019-05-14T21:40:45.576Z,9.70
2019-05-14T21:43:15.702Z,9.60
2019-05-14T21:45:45.815Z,9.60
2019-05-14T21:48:19.639Z,9.50
2019-05-14T21:50:47.547Z,9.50
2019-05-14T21:53:19.129Z,9.40
2019-05-14T21:55:49.247Z,9.40
2019-05-14T21:58:19.814Z,9.40
2019-05-14T22:00:52.813Z,9.40
2019-05-14T22:03:23.296Z,9.40
2019-05-14T22:05:53.523Z,9.20
2019-05-14T22:08:23.608Z,9.20
2019-05-14T22:10:53.678Z,9.10
2019-05-14T22:13:23.767Z,9.10
2019-05-14T22:15:53.835Z,9.00
2019-05-14T22:18:23.845Z,8.90
2019-05-14T22:20:53.836Z,8.80
2019-05-14T22:23:23.923Z,8.80
2019-05-14T22:25:55.035Z,8.70
2019-05-14T22:28:25.112Z,8.70
2019-05-14T22:30:55.123Z,8.80
2019-05-14T22:33:25.177Z,8.70
2019-05-14T22:35:58.063Z,8.60
2019-05-14T22:38:29.384Z,8.50
2019-05-14T22:40:59.497Z,8.50
2019-05-14T22:43:29.557Z,8.40
2019-05-14T22:45:59.692Z,8.40
2019-05-14T22:48:29.882Z,8.40
2019-05-14T22:50:59.876Z,8.30
2019-05-14T22:53:30.462Z,8.20
2019-05-14T22:56:01.863Z,8.10
2019-05-14T22:58:31.939Z,8.00
2019-05-14T23:01:14.306Z,8.00
2019-05-14T23:03:34.129Z,7.80
2019-05-14T23:06:04.162Z,7.90
2019-05-14T23:08:34.262Z,7.80
2019-05-14T23:11:04.286Z,7.90
2019-05-14T23:13:34.341Z,7.90
2019-05-14T23:16:04.350Z,7.90
2019-05-14T23:18:34.499Z,7.90
2019-05-14T23:21:05.495Z,7.80
2019-05-14T23:23:35.530Z,7.80
2019-05-14T23:26:05.519Z,7.80
2019-05-14T23:28:44.512Z,8.00
2019-05-14T23:31:08.414Z,7.80
2019-05-14T23:33:39.026Z,7.70
2019-05-14T23:36:09.305Z,7.60
2019-05-14T23:38:39.899Z,7.70
2019-05-14T23:41:09.973Z,7.40
2019-05-14T23:43:40.053Z,7.40
2019-05-14T23:46:10.135Z,7.20
2019-05-14T23:48:40.255Z,7.20
2019-05-14T23:51:10.269Z,7.20
2019-05-14T23:53:40.263Z,7.10
2019-05-14T23:56:10.294Z,7.10
2019-05-14T23:58:54.320Z,7.00
